Time;durP1;ratioP1;P1;durP2;ratioP2;P2;SDS_P1;SDS_P2;PMS_P1;PMS_P2;Temp;Humidity;BMP_temperature;BMP_pressure;BME280_temperature;BME280_humidity;BME280_pressure;Samples;Min_cycle;Max_cycle;Signal;HPM_P1;HPM_P2
2023/04/21 04:13:29;;;;;;;10.25;6.07;;;;;;;8.11;100.00;100294.97;5565419;32;200491;-87
2023/04/21 04:16:34;;;;;;;13.35;5.97;;;;;;;8.10;100.00;100293.25;5555837;32;33712;-85
2023/04/21 04:19:37;;;;;;;8.82;5.75;;;;;;;8.22;100.00;100299.78;5556240;32;35216;-85
2023/04/21 04:22:40;;;;;;;14.40;5.68;;;;;;;8.21;100.00;100306.00;5551386;32;34550;-85
2023/04/21 04:25:43;;;;;;;13.70;5.85;;;;;;;8.30;100.00;100305.59;5552231;32;34139;-84
2023/04/21 04:28:46;;;;;;;11.55;6.25;;;;;;;8.49;99.75;100312.78;5551281;32;33860;-84
2023/04/21 04:31:50;;;;;;;13.70;5.82;;;;;;;8.62;97.72;100315.81;5554559;32;34108;-85
2023/04/21 04:34:54;;;;;;;11.20;5.78;;;;;;;8.70;98.73;100313.69;5557406;32;34261;-85
2023/04/21 04:37:57;;;;;;;11.25;5.70;;;;;;;8.78;98.41;100318.66;5552486;32;35063;-85
2023/04/21 04:41:01;;;;;;;15.05;6.50;;;;;;;8.92;93.63;100318.06;5550306;32;33887;-84
2023/04/21 04:44:04;;;;;;;13.93;5.90;;;;;;;9.04;93.49;100311.34;5550292;32;34471;-84
2023/04/21 04:47:07;;;;;;;13.15;5.60;;;;;;;9.10;93.81;100321.66;5551204;32;34372;-84
2023/04/21 04:50:10;;;;;;;10.52;5.90;;;;;;;9.19;91.18;100325.69;5550992;32;33856;-87
2023/04/21 04:53:13;;;;;;;15.48;5.97;;;;;;;9.34;89.82;100326.78;5551031;32;34029;-84
2023/04/21 04:56:16;;;;;;;9.23;5.40;;;;;;;9.42;89.73;100326.44;5550719;32;34289;-84
2023/04/21 04:59:19;;;;;;;8.77;5.55;;;;;;;9.47;88.80;100321.78;5550748;32;33459;-86
2023/04/21 05:02:22;;;;;;;15.10;5.80;;;;;;;9.56;88.83;100313.41;5549080;32;33843;-84
2023/04/21 05:05:26;;;;;;;12.05;6.07;;;;;;;9.76;87.16;100319.56;5550246;32;34502;-84
2023/04/21 05:08:28;;;;;;;13.93;5.80;;;;;;;9.92;85.84;100318.84;5550021;32;33699;-84
2023/04/21 05:11:31;;;;;;;16.12;5.32;;;;;;;10.11;84.63;100316.16;5549559;32;33664;-84
2023/04/21 05:14:34;;;;;;;12.93;5.55;;;;;;;10.22;84.07;100319.13;5550180;32;34275;-85
2023/04/21 05:17:37;;;;;;;11.73;5.65;;;;;;;10.57;81.28;100318.34;5550828;32;34115;-85
2023/04/21 05:20:41;;;;;;;15.63;5.70;;;;;;;11.30;77.69;100319.91;5549920;32;34409;-85
2023/04/21 05:23:44;;;;;;;20.25;5.40;;;;;;;13.03;67.34;100318.13;5541792;32;34136;-85
2023/04/21 05:26:46;;;;;;;11.68;5.28;;;;;;;14.05;61.38;100319.84;5536597;32;33952;-85
2023/04/21 05:29:49;;;;;;;12.77;5.22;;;;;;;14.43;58.67;100321.78;5535541;32;33594;-85
2023/04/21 05:32:52;;;;;;;12.37;5.45;;;;;;;14.45;58.97;100321.69;5531461;32;33803;-84
2023/04/21 05:35:55;;;;;;;14.18;5.00;;;;;;;14.70;57.14;100326.22;5518528;32;34890;-86
2023/04/21 05:38:57;;;;;;;11.35;4.90;;;;;;;14.81;56.02;100326.41;5521369;32;34375;-86
2023/04/21 05:42:01;;;;;;;14.00;4.95;;;;;;;15.58;54.26;100329.09;5531664;32;33967;-86
2023/04/21 05:45:04;;;;;;;7.85;5.03;;;;;;;15.07;54.53;100328.19;5524821;32;33837;-86
2023/04/21 05:48:07;;;;;;;13.70;5.47;;;;;;;15.97;51.67;100327.22;5514903;32;33743;-86
2023/04/21 05:51:11;;;;;;;13.82;5.47;;;;;;;16.91;48.71;100331.00;5520985;32;33836;-86
2023/04/21 05:54:15;;;;;;;11.40;4.75;;;;;;;17.61;45.71;100336.31;5519659;32;33823;-90
2023/04/21 05:57:18;;;;;;;12.77;4.97;;;;;;;18.13;43.94;100336.63;5523230;32;33887;-87
2023/04/21 06:00:21;;;;;;;13.07;4.53;;;;;;;18.32;43.11;100338.59;5515961;32;33846;-86
2023/04/21 06:03:24;;;;;;;16.65;4.35;;;;;;;18.04;43.25;100334.63;5513748;32;33795;-87
2023/04/21 06:06:27;;;;;;;18.58;5.05;;;;;;;18.62;41.55;100338.00;5514754;32;33799;-87
2023/04/21 06:09:30;;;;;;;12.18;4.80;;;;;;;17.67;42.06;100343.00;5528543;32;33532;-89
2023/04/21 06:12:32;;;;;;;12.88;5.32;;;;;;;17.75;41.81;100338.72;5519764;32;34690;-89
2023/04/21 06:15:35;;;;;;;19.73;5.10;;;;;;;18.95;40.80;100341.47;5526554;32;33815;-88
2023/04/21 06:18:38;;;;;;;13.02;4.40;;;;;;;19.30;39.15;100342.13;5520843;32;34326;-89
2023/04/21 06:21:41;;;;;;;14.95;4.37;;;;;;;19.43;38.27;100341.91;5529041;32;33525;-87
2023/04/21 06:24:43;;;;;;;12.20;4.28;;;;;;;19.73;37.39;100337.47;5530016;32;34032;-88
2023/04/21 06:27:46;;;;;;;12.30;4.57;;;;;;;19.62;37.24;100343.81;5512232;32;33722;-87
2023/04/21 06:30:49;;;;;;;9.77;4.60;;;;;;;20.03;35.62;100336.59;5519815;32;33735;-88
2023/04/21 06:33:52;;;;;;;10.18;4.35;;;;;;;20.56;34.95;100342.56;5523826;32;33698;-87
2023/04/21 06:36:55;;;;;;;8.63;4.15;;;;;;;20.62;34.91;100343.00;5530295;32;35061;-86
2023/04/21 06:39:58;;;;;;;14.43;4.65;;;;;;;20.90;34.24;100338.59;5512180;32;34795;-85
2023/04/21 06:43:00;;;;;;;15.30;4.28;;;;;;;21.26;33.13;100328.00;5528647;32;33757;-84
2023/04/21 06:46:04;;;;;;;12.52;4.57;;;;;;;22.73;34.50;100327.22;5524668;32;33910;-85
2023/04/21 06:49:07;;;;;;;11.52;4.30;;;;;;;23.30;32.04;100339.41;5519496;32;33607;-84
2023/04/21 06:52:10;;;;;;;9.15;4.12;;;;;;;24.32;29.75;100337.75;5512444;32;34291;-83
2023/04/21 06:55:13;;;;;;;10.88;4.30;;;;;;;23.60;33.16;100334.50;5524112;32;34559;-84
2023/04/21 06:58:16;;;;;;;12.85;4.07;;;;;;;23.75;31.11;100331.19;5522365;32;33884;-85
2023/04/21 07:01:25;;;;;;;12.52;3.92;;;;;;;23.81;29.11;100338.63;5511061;32;33971;-85
2023/04/21 07:04:30;;;;;;;11.07;3.97;;;;;;;22.89;30.52;100335.44;5521933;32;33714;-84
2023/04/21 07:07:33;;;;;;;12.43;4.12;;;;;;;22.95;30.96;100325.00;5529661;32;33575;-84
2023/04/21 07:10:36;;;;;;;15.95;4.47;;;;;;;22.03;36.09;100339.56;5527462;32;33952;-85
2023/04/21 07:13:39;;;;;;;13.07;4.22;;;;;;;20.42;38.27;100327.69;5522679;32;34365;-84
2023/04/21 07:16:42;;;;;;;11.75;4.15;;;;;;;20.59;33.73;100320.75;5518060;32;33462;-83
2023/04/21 07:19:45;;;;;;;9.90;4.10;;;;;;;21.45;33.64;100323.50;5525134;32;34746;-83
2023/04/21 07:22:48;;;;;;;8.38;3.78;;;;;;;22.03;32.31;100334.16;5526241;32;33581;-84
2023/04/21 07:25:50;;;;;;;11.05;4.20;;;;;;;21.46;32.76;100325.19;5519861;32;33942;-84
2023/04/21 07:28:57;;;;;;;9.10;3.75;;;;;;;20.67;34.28;100325.37;5522787;32;34676;-84
2023/04/21 07:31:59;;;;;;;9.18;4.20;;;;;;;20.06;35.71;100320.16;5532526;32;34180;-83
2023/04/21 07:35:03;;;;;;;13.35;4.20;;;;;;;20.95;35.05;100322.84;5529830;32;33680;-83
2023/04/21 07:38:06;;;;;;;10.63;3.62;;;;;;;20.60;35.35;100316.19;5519319;32;34599;-83
2023/04/21 07:41:11;;;;;;;13.55;4.32;;;;;;;21.52;33.54;100312.97;5529630;32;33911;-83
2023/04/21 07:44:14;;;;;;;16.92;4.53;;;;;;;20.76;34.92;100317.47;5520518;32;34252;-83
2023/04/21 07:47:17;;;;;;;7.18;3.87;;;;;;;20.77;35.16;100319.16;5519784;32;33456;-83
2023/04/21 07:50:19;;;;;;;12.07;4.62;;;;;;;20.96;34.77;100318.28;5524305;32;33906;-84
2023/04/21 07:53:23;;;;;;;10.07;4.55;;;;;;;20.95;34.23;100316.56;5520411;32;33629;-85
2023/04/21 07:56:25;;;;;;;13.48;4.05;;;;;;;20.45;34.46;100319.31;5519670;32;34400;-86
2023/04/21 07:59:28;;;;;;;9.75;3.70;;;;;;;21.48;32.85;100315.09;5523493;32;33664;-85
2023/04/21 08:02:31;;;;;;;11.48;4.25;;;;;;;21.76;32.24;100322.37;5522430;32;33923;-84
2023/04/21 08:05:34;;;;;;;9.18;3.78;;;;;;;22.11;32.57;100315.34;5518934;32;33775;-84
2023/04/21 08:08:42;;;;;;;16.42;3.87;;;;;;;22.17;31.12;100320.12;5537544;32;33727;-85
2023/04/21 08:11:46;;;;;;;10.57;3.97;;;;;;;21.32;32.31;100306.81;5534966;32;33795;-88
2023/04/21 08:14:48;;;;;;;13.90;4.05;;;;;;;21.70;31.94;100314.87;5523814;32;33681;-90
2023/04/21 08:17:52;;;;;;;11.25;3.70;;;;;;;22.85;30.65;100306.19;5523622;32;33933;-88
2023/04/21 08:20:56;;;;;;;15.57;4.00;;;;;;;22.06;32.21;100309.53;5514217;32;34273;-84
2023/04/21 08:24:00;;;;;;;10.57;4.10;;;;;;;20.97;32.51;100315.44;5520427;32;33798;-83
2023/04/21 08:27:03;;;;;;;7.68;3.67;;;;;;;21.47;31.58;100308.00;5520471;32;34079;-84
2023/04/21 08:30:07;;;;;;;14.27;4.07;;;;;;;22.23;30.97;100318.66;5526388;32;34356;-86
2023/04/21 08:33:12;;;;;;;11.65;3.70;;;;;;;22.98;29.37;100314.72;5529459;32;33688;-86
2023/04/21 08:36:15;;;;;;;16.65;4.72;;;;;;;23.79;28.93;100311.72;5525358;32;33804;-86
2023/04/21 08:39:31;;;;;;;8.90;4.12;;;;;;;22.74;29.25;100313.53;5509790;32;33806;-86
2023/04/21 08:42:35;;;;;;;6.45;3.95;;;;;;;23.07;28.88;100303.97;5512221;32;34591;-85
2023/04/21 08:45:39;;;;;;;11.95;4.07;;;;;;;22.10;29.43;100312.78;5509297;32;34511;-86
2023/04/21 08:48:42;;;;;;;13.48;5.22;;;;;;;22.57;30.62;100312.56;5509018;32;33303;-85
2023/04/21 08:51:46;;;;;;;12.85;4.22;;;;;;;22.13;28.84;100304.38;5509545;32;34815;-86
2023/04/21 08:54:52;;;;;;;8.15;4.22;;;;;;;22.93;29.43;100299.97;5509707;32;33662;-85
2023/04/21 08:57:54;;;;;;;10.60;4.60;;;;;;;22.71;28.78;100304.87;5510884;32;34667;-85
2023/04/21 09:00:57;;;;;;;11.23;5.00;;;;;;;22.71;28.81;100297.63;5518081;32;34263;-85
2023/04/21 09:04:16;;;;;;;9.52;4.75;;;;;;;23.16;28.52;100294.87;5528321;32;33713;-86
2023/04/21 09:07:36;;;;;;;9.20;4.28;;;;;;;22.77;29.09;100296.16;5526273;32;33795;-86
2023/04/21 09:10:47;;;;;;;10.07;4.60;;;;;;;23.32;28.24;100299.53;5518001;32;33805;-86
2023/04/21 09:13:50;;;;;;;12.15;5.53;;;;;;;22.64;28.77;100291.19;5521592;32;34571;-85
2023/04/21 09:17:00;;;;;;;7.03;4.50;;;;;;;21.61;30.23;100293.16;5515531;32;33626;-85
2023/04/21 09:20:15;;;;;;;10.82;5.32;;;;;;;20.97;31.02;100290.34;5519822;32;34563;-85
2023/04/21 09:23:20;;;;;;;11.95;5.18;;;;;;;21.67;30.63;100292.56;5524103;32;34198;-85
2023/04/21 09:26:25;;;;;;;9.75;5.65;;;;;;;23.05;28.98;100290.59;5523598;32;34645;-87
2023/04/21 09:29:29;;;;;;;7.50;5.35;;;;;;;21.95;30.25;100283.63;5534036;32;34094;-89
2023/04/21 09:32:39;;;;;;;12.77;5.65;;;;;;;22.01;30.49;100276.75;5543599;32;33869;-89
2023/04/21 09:35:42;;;;;;;8.05;5.45;;;;;;;22.30;30.81;100271.13;5545098;32;35790;-86
2023/04/21 09:39:03;;;;;;;10.27;5.60;;;;;;;22.86;29.02;100273.56;5544264;32;35435;-87
2023/04/21 09:42:10;;;;;;;14.82;5.50;;;;;;;21.88;29.83;100269.88;5541779;32;34205;-87
2023/04/21 09:45:13;;;;;;;9.77;5.57;;;;;;;22.43;30.47;100268.00;5530811;32;34502;-87
2023/04/21 09:48:21;;;;;;;10.40;4.93;;;;;;;23.00;29.24;100266.72;5534306;32;34828;-88
2023/04/21 09:51:25;;;;;;;10.05;5.55;;;;;;;22.79;29.18;100263.56;5530712;32;33816;-88
2023/04/21 09:54:50;;;;;;;11.75;5.70;;;;;;;21.94;30.51;100252.22;5530198;32;33777;-87
2023/04/21 09:57:59;;;;;;;10.20;5.93;;;;;;;21.07;31.19;100253.38;5529972;32;33842;-87
2023/04/21 10:01:03;;;;;;;10.25;5.70;;;;;;;21.84;31.14;100256.84;5523295;32;33951;-88
2023/04/21 10:04:06;;;;;;;11.32;6.03;;;;;;;22.93;29.58;100248.59;5513195;32;33967;-87
2023/04/21 10:07:10;;;;;;;11.93;6.00;;;;;;;20.84;31.35;100253.78;5522032;32;33588;-87
2023/04/21 10:10:23;;;;;;;14.60;6.00;;;;;;;22.51;29.85;100244.72;5533367;32;34298;-86
2023/04/21 10:13:26;;;;;;;8.75;5.85;;;;;;;24.19;27.27;100246.12;5530977;32;34028;-86
2023/04/21 10:16:29;;;;;;;9.27;5.53;;;;;;;22.79;28.54;100237.37;5538775;32;34218;-86
2023/04/21 10:19:38;;;;;;;8.98;6.05;;;;;;;22.69;29.60;100239.31;5531159;32;34155;-86
2023/04/21 10:22:41;;;;;;;13.77;6.12;;;;;;;21.78;31.07;100236.72;5534817;32;34139;-87
2023/04/21 10:25:48;;;;;;;12.18;6.40;;;;;;;21.88;31.10;100237.47;5531192;32;34332;-87
2023/04/21 10:29:06;;;;;;;13.73;6.25;;;;;;;21.44;32.06;100229.22;5513172;32;35256;-85
2023/04/21 10:32:08;;;;;;;11.43;6.50;;;;;;;21.28;31.89;100236.13;5511803;32;34195;-85
2023/04/21 10:35:20;;;;;;;16.92;6.50;;;;;;;20.26;33.65;100230.44;5510371;32;34528;-89
2023/04/21 10:38:40;;;;;;;10.88;6.28;;;;;;;20.89;32.58;100234.44;5511991;32;34620;-90
2023/04/21 10:41:45;;;;;;;12.82;6.90;;;;;;;23.97;28.15;100224.06;5514244;32;34522;-86
2023/04/21 10:44:53;;;;;;;11.98;5.95;;;;;;;26.82;24.50;100228.81;5512869;32;34362;-86
2023/04/21 10:48:00;;;;;;;13.90;5.90;;;;;;;26.48;24.92;100231.03;5514047;32;33861;-87
2023/04/21 10:51:03;;;;;;;9.05;6.25;;;;;;;26.37;25.44;100216.03;5522553;32;33940;-87
2023/04/21 10:54:06;;;;;;;12.85;6.10;;;;;;;26.41;25.58;100216.50;5526543;32;34654;-86
2023/04/21 10:57:11;;;;;;;14.55;6.37;;;;;;;24.59;27.52;100208.31;5515479;32;34021;-87
2023/04/21 11:00:17;;;;;;;14.82;6.40;;;;;;;24.64;26.89;100211.38;5517188;32;33950;-87
2023/04/21 11:03:19;;;;;;;9.02;5.90;;;;;;;23.82;29.76;100196.78;5530728;32;33876;-88
2023/04/21 11:06:22;;;;;;;9.50;6.65;;;;;;;24.23;27.30;100204.97;5527553;32;33593;-87
2023/04/21 11:09:29;;;;;;;9.20;6.75;;;;;;;22.59;28.91;100197.00;5517855;32;33712;-87
2023/04/21 11:12:35;;;;;;;14.63;6.20;;;;;;;21.88;29.98;100188.03;5529851;32;32953;-87
2023/04/21 11:15:38;;;;;;;8.40;5.82;;;;;;;21.59;30.53;100195.31;5538784;32;33811;-86
2023/04/21 11:18:43;;;;;;;15.30;6.30;;;;;;;21.10;31.51;100198.31;5531294;32;34345;-86
2023/04/21 11:21:47;;;;;;;10.90;5.95;;;;;;;20.55;31.17;100189.97;5538641;32;33386;-87
2023/04/21 11:24:53;;;;;;;14.60;6.62;;;;;;;20.17;32.43;100187.22;5539093;32;33794;-87
2023/04/21 11:27:58;;;;;;;12.20;6.28;;;;;;;19.87;32.86;100182.81;5538040;32;33866;-87
2023/04/21 11:31:02;;;;;;;10.23;6.43;;;;;;;19.71;32.91;100191.47;5534838;32;33854;-88
2023/04/21 11:34:05;;;;;;;11.18;6.65;;;;;;;19.73;33.69;100189.47;5547965;32;34219;-88
2023/04/21 11:37:12;;;;;;;12.35;6.10;;;;;;;19.24;34.32;100184.88;5535041;32;33843;-87
2023/04/21 11:40:15;;;;;;;12.70;6.30;;;;;;;19.12;34.27;100179.59;5539411;32;34463;-87
2023/04/21 11:43:20;;;;;;;8.40;5.90;;;;;;;19.39;35.29;100186.19;5537748;32;34350;-87
2023/04/21 11:46:24;;;;;;;13.73;6.00;;;;;;;19.87;35.45;100183.66;5552357;32;34276;-86
2023/04/21 11:49:31;;;;;;;8.43;6.30;;;;;;;19.63;34.70;100182.25;5548188;32;34519;-86
2023/04/21 11:52:36;;;;;;;9.13;5.50;;;;;;;19.42;36.13;100179.69;5544204;32;33677;-87
2023/04/21 11:55:48;;;;;;;8.82;6.32;;;;;;;20.09;35.48;100165.56;5547734;32;34978;-87
2023/04/21 11:58:51;;;;;;;7.85;5.50;;;;;;;20.78;33.87;100176.16;5546051;32;34166;-87
2023/04/21 12:01:56;;;;;;;9.27;6.35;;;;;;;21.69;33.62;100173.66;5545877;32;34854;-91
2023/04/21 12:05:03;;;;;;;10.60;6.30;;;;;;;22.27;32.38;100173.31;5540698;32;34213;-91
2023/04/21 12:08:15;;;;;;;10.73;6.28;;;;;;;22.20;30.67;100171.25;5543212;32;34677;-86
2023/04/21 12:11:18;;;;;;;12.37;6.30;;;;;;;21.24;31.32;100165.44;5529522;32;33463;-87
2023/04/21 12:14:22;;;;;;;9.65;5.82;;;;;;;21.28;31.55;100166.00;5536455;32;33660;-86
2023/04/21 12:17:25;;;;;;;9.52;6.30;;;;;;;20.96;31.43;100167.28;5548002;32;33781;-86
2023/04/21 12:20:28;;;;;;;11.05;6.10;;;;;;;21.18;32.22;100165.19;5547155;32;34733;-87
2023/04/21 12:23:32;;;;;;;10.95;5.82;;;;;;;21.26;32.10;100163.44;5543144;32;34486;-86
2023/04/21 12:26:34;;;;;;;10.05;5.60;;;;;;;19.73;33.32;100157.19;5548787;32;34463;-86
2023/04/21 12:29:38;;;;;;;9.52;5.97;;;;;;;19.55;34.42;100157.03;5549718;32;33818;-87
2023/04/21 12:32:41;;;;;;;11.35;6.18;;;;;;;19.31;34.53;100155.59;5549142;32;33487;-86
2023/04/21 12:35:44;;;;;;;7.87;6.18;;;;;;;19.34;34.99;100149.94;5544460;32;33720;-86
2023/04/21 12:38:47;;;;;;;8.23;6.20;;;;;;;19.43;34.66;100148.25;5555303;32;34700;-86
2023/04/21 12:41:50;;;;;;;14.90;6.37;;;;;;;19.46;34.41;100151.50;5544128;32;33734;-85
2023/04/21 12:44:53;;;;;;;12.35;6.78;;;;;;;19.08;35.44;100150.44;5548095;32;34127;-86
2023/04/21 12:47:57;;;;;;;10.07;5.90;;;;;;;19.21;34.92;100147.50;5545439;32;33802;-86
2023/04/21 12:50:59;;;;;;;10.13;6.50;;;;;;;19.13;35.00;100149.03;5551729;32;33901;-86
2023/04/21 12:54:02;;;;;;;13.77;6.37;;;;;;;19.37;34.68;100144.28;5546757;32;33850;-87
2023/04/21 12:57:05;;;;;;;11.57;6.60;;;;;;;19.47;35.43;100144.28;5544987;32;33939;-88
2023/04/21 13:00:11;;;;;;;10.05;6.22;;;;;;;19.44;34.19;100140.03;5533431;32;34427;-87
2023/04/21 13:03:14;;;;;;;10.18;6.05;;;;;;;19.49;34.51;100140.47;5539870;32;34141;-86
2023/04/21 13:06:17;;;;;;;9.45;5.82;;;;;;;19.32;34.28;100135.78;5533348;32;33713;-86
2023/04/21 13:09:20;;;;;;;8.25;6.10;;;;;;;19.49;34.57;100140.47;5543523;32;32276;-86
2023/04/21 13:12:24;;;;;;;13.32;5.78;;;;;;;19.30;34.17;100137.78;5555907;32;33988;-86
2023/04/21 13:15:27;;;;;;;15.55;6.30;;;;;;;19.18;34.59;100137.88;5550119;32;33859;-86
2023/04/21 13:18:29;;;;;;;8.77;5.97;;;;;;;18.95;34.97;100134.53;5548996;32;34481;-87
2023/04/21 13:21:32;;;;;;;12.95;5.62;;;;;;;18.90;35.24;100136.78;5550692;32;33873;-86
2023/04/21 13:24:35;;;;;;;11.32;6.05;;;;;;;19.13;35.09;100138.28;5550289;32;33738;-86
2023/04/21 13:27:39;;;;;;;11.52;5.85;;;;;;;18.86;36.40;100130.84;5551876;32;33741;-86
2023/04/21 13:30:42;;;;;;;6.37;5.57;;;;;;;18.94;36.66;100128.31;5555702;32;33828;-86
2023/04/21 13:33:44;;;;;;;11.65;5.95;;;;;;;19.33;36.77;100132.97;5555086;32;33484;-86
2023/04/21 13:36:47;;;;;;;11.55;5.65;;;;;;;19.60;35.62;100122.47;5549334;32;33954;-86
2023/04/21 13:39:50;;;;;;;10.88;6.00;;;;;;;19.00;36.61;100129.59;5547242;32;34694;-86
2023/04/21 13:42:53;;;;;;;14.82;6.05;;;;;;;18.89;36.03;100127.88;5550002;32;33718;-86
2023/04/21 13:45:56;;;;;;;9.63;6.07;;;;;;;19.16;36.00;100125.56;5547094;32;34515;-86
2023/04/21 13:48:59;;;;;;;9.02;5.68;;;;;;;19.45;36.20;100124.75;5528946;32;33776;-86
2023/04/21 13:52:02;;;;;;;20.00;6.20;;;;;;;19.23;36.51;100115.94;5529837;32;33730;-85
2023/04/21 13:55:05;;;;;;;12.07;6.20;;;;;;;19.12;36.30;100122.31;5531492;32;33973;-86
2023/04/21 13:58:08;;;;;;;12.52;5.65;;;;;;;18.85;35.45;100111.16;5544379;32;34668;-86
2023/04/21 14:01:13;;;;;;;9.40;6.15;;;;;;;19.21;36.38;100112.56;5541056;32;33752;-86
2023/04/21 14:04:16;;;;;;;8.80;5.72;;;;;;;19.11;35.30;100113.38;5531929;32;33902;-86
2023/04/21 14:07:20;;;;;;;11.48;6.03;;;;;;;19.16;36.21;100104.06;5529655;32;33842;-86
2023/04/21 14:10:29;;;;;;;11.35;5.82;;;;;;;19.49;36.38;100101.94;5528361;32;33947;-90
2023/04/21 14:13:31;;;;;;;10.38;6.00;;;;;;;19.65;35.48;100091.47;5525239;32;35145;-91
2023/04/21 14:16:50;;;;;;;11.77;6.47;;;;;;;19.30;35.15;100092.06;5530021;32;34327;-86
2023/04/21 14:19:52;;;;;;;11.93;6.07;;;;;;;18.75;36.29;100093.31;5529919;32;33786;-86
2023/04/21 14:22:57;;;;;;;11.90;6.25;;;;;;;18.80;36.58;100088.41;5530642;32;34129;-89
2023/04/21 14:25:59;;;;;;;7.75;6.03;;;;;;;19.20;36.10;100081.25;5530139;32;34736;-87
2023/04/21 14:29:02;;;;;;;8.93;6.00;;;;;;;19.26;35.73;100084.25;5524266;32;33853;-87
2023/04/21 14:32:05;;;;;;;8.48;5.32;;;;;;;18.68;37.28;100079.56;5534008;32;33711;-86
2023/04/21 14:35:08;;;;;;;8.60;5.37;;;;;;;18.76;36.95;100076.22;5527751;32;34923;-87
2023/04/21 14:38:11;;;;;;;7.03;5.57;;;;;;;18.94;36.65;100082.62;5511216;32;33785;-86
2023/04/21 14:41:14;;;;;;;9.93;5.87;;;;;;;18.98;35.99;100081.37;5511258;32;33846;-86
2023/04/21 14:44:17;;;;;;;9.65;5.82;;;;;;;18.67;35.78;100078.75;5516117;32;33717;-87
2023/04/21 14:47:21;;;;;;;7.10;5.80;;;;;;;18.66;36.27;100077.03;5534332;32;33577;-86
2023/04/21 14:50:23;;;;;;;8.77;6.03;;;;;;;18.50;36.81;100076.69;5543671;32;35134;-86
2023/04/21 14:53:26;;;;;;;9.55;5.68;;;;;;;18.67;36.34;100075.19;5550259;32;33865;-86
2023/04/21 14:56:29;;;;;;;8.52;5.35;;;;;;;18.38;36.63;100073.25;5546149;32;33949;-86
2023/04/21 14:59:32;;;;;;;7.43;5.53;;;;;;;18.55;37.27;100069.06;5548118;32;33563;-86
2023/04/21 15:02:35;;;;;;;6.70;5.40;;;;;;;18.63;36.21;100071.06;5548415;32;34688;-86
2023/04/21 15:05:38;;;;;;;10.50;5.68;;;;;;;18.57;36.60;100067.09;5549216;32;33884;-86
2023/04/21 15:08:41;;;;;;;9.73;5.85;;;;;;;18.40;35.55;100072.13;5552970;32;34091;-86
2023/04/21 15:11:45;;;;;;;9.25;6.07;;;;;;;18.26;36.20;100064.44;5565152;32;34482;-86
2023/04/21 15:14:47;;;;;;;10.88;6.12;;;;;;;18.42;35.76;100061.25;5572729;32;34090;-86
2023/04/21 15:17:50;;;;;;;10.07;5.80;;;;;;;18.38;35.95;100049.94;5567886;32;33505;-86
2023/04/21 15:20:54;;;;;;;6.65;5.68;;;;;;;18.52;36.15;100047.88;5568202;32;33721;-86
2023/04/21 15:23:57;;;;;;;8.48;5.97;;;;;;;18.95;35.21;100045.84;5567877;32;34482;-86
2023/04/21 15:27:01;;;;;;;6.05;5.53;;;;;;;18.88;35.69;100048.25;5568061;32;33950;-86
2023/04/21 15:30:04;;;;;;;7.95;5.30;;;;;;;18.99;35.07;100048.13;5568072;32;33925;-86
